CheckWX is a tool to help pilots better visualize weather data.  It is not intended as a substitute for an official pre-flight weather briefing.

20:26:16 UTC

KLEX TAF
Blue Grass Airport
Lexington, Kentucky, USA
KLEX 251720Z 2518/2618 25008KT P6SM SCT040 SCT250 FM260000 19004KT P6SM FEW250

Jun-25@
18:00 UTC

Jun-25 @ 18:00 UTC

Jun-26@
00:00 UTC

Jun-26 @ 00:00 UTC

KLEX 251720Z 2518/2618 25008KT P6SM SCT040 SCT250
Wind
  • 250° at 8 KTS
Cloud Levels
  • Scattered at 4,000' AGL
  • Scattered at 25,000' AGL

Jun-26@
00:00 UTC

Jun-26 @ 00:00 UTC

Jun-26@
18:00 UTC

Jun-26 @ 18:00 UTC

FM260000 19004KT P6SM FEW250

From

From Standard forecast or significant change

Wind
  • 190° at 4 KTS
Cloud Levels
  • Few at 25,000' AGL